Time;durP1;ratioP1;P1;durP2;ratioP2;P2;SDS_P1;SDS_P2;PMS_P1;PMS_P2;Temp;Humidity;BMP_temperature;BMP_pressure;BME280_temperature;BME280_humidity;BME280_pressure;Samples;Min_cycle;Max_cycle;Signal;HPM_P1;HPM_P2
2023/01/01 00:01:25;;;;;;;93.53;42.88;;;;;;;3.37;100.00;98944.22;6245796;22;20078;-78
2023/01/01 00:03:51;;;;;;;87.90;38.65;;;;;;;3.37;100.00;98938.06;6246475;22;20014;-84
2023/01/01 00:06:17;;;;;;;81.60;37.08;;;;;;;3.34;100.00;98933.69;6247890;22;20409;-81
2023/01/01 00:08:43;;;;;;;113.57;46.33;;;;;;;3.37;100.00;98938.94;6247339;22;20015;-79
2023/01/01 00:11:09;;;;;;;108.03;44.90;;;;;;;3.45;100.00;98955.59;6271712;22;20008;-75
2023/01/01 00:13:36;;;;;;;112.90;45.75;;;;;;;3.22;100.00;98953.22;6270817;22;20003;-84
2023/01/01 00:16:09;;;;;;;123.35;48.42;;;;;;;3.30;100.00;98968.97;6246208;22;20454;-82
2023/01/01 00:18:35;;;;;;;121.65;48.85;;;;;;;3.33;100.00;98979.53;6246066;22;20079;-81
2023/01/01 00:21:03;;;;;;;125.82;53.05;;;;;;;3.22;100.00;98962.91;6249226;22;20015;-82
2023/01/01 00:23:28;;;;;;;146.35;58.38;;;;;;;3.29;100.00;98983.97;6274885;22;19999;-79
2023/01/01 00:25:54;;;;;;;150.00;60.83;;;;;;;3.37;100.00;98989.19;6249320;22;20010;-79
2023/01/01 00:28:19;;;;;;;142.65;57.60;;;;;;;3.30;100.00;98990.13;6272781;22;20004;-80
2023/01/01 00:30:45;;;;;;;158.50;64.65;;;;;;;3.27;100.00;98991.03;6272815;22;20011;-79
2023/01/01 00:33:10;;;;;;;177.13;71.63;;;;;;;3.29;100.00;98989.25;6279951;22;20003;-78
2023/01/01 00:35:36;;;;;;;203.55;83.18;;;;;;;3.26;100.00;98983.13;6275149;22;20034;-79
2023/01/01 00:38:01;;;;;;;204.10;82.72;;;;;;;3.32;100.00;98988.38;6272571;22;20071;-79
2023/01/01 00:40:27;;;;;;;210.52;88.47;;;;;;;3.30;100.00;98982.19;6276271;22;20023;-79
2023/01/01 00:42:53;;;;;;;183.90;73.60;;;;;;;3.30;100.00;98982.19;6249237;22;20459;-79
2023/01/01 00:45:18;;;;;;;195.43;74.93;;;;;;;3.20;100.00;98980.53;6249659;22;20012;-81
2023/01/01 00:47:44;;;;;;;169.10;65.40;;;;;;;3.15;100.00;98987.63;6246214;22;20023;-79
2023/01/01 00:50:09;;;;;;;193.70;75.78;;;;;;;3.02;100.00;98978.94;6245701;22;20011;-80
2023/01/01 00:52:35;;;;;;;220.02;88.22;;;;;;;3.09;100.00;98992.97;6275932;22;20506;-81
2023/01/01 00:55:01;;;;;;;209.80;88.50;;;;;;;3.10;100.00;98989.47;6275036;22;19996;-81
2023/01/01 00:57:27;;;;;;;227.50;97.85;;;;;;;3.11;100.00;98980.63;6272940;22;20034;-80
2023/01/01 00:59:52;;;;;;;179.77;72.85;;;;;;;3.10;100.00;98986.81;6277928;22;20003;-80
2023/01/01 01:02:18;;;;;;;183.55;75.75;;;;;;;3.04;100.00;98985.09;6247823;22;20008;-79
2023/01/01 01:04:44;;;;;;;177.75;70.43;;;;;;;2.91;100.00;98969.34;6247871;22;20030;-81
2023/01/01 01:07:09;;;;;;;183.15;72.50;;;;;;;2.91;100.00;98970.25;6248324;22;20351;-80
2023/01/01 01:09:35;;;;;;;197.85;85.25;;;;;;;2.98;100.00;98994.84;6274336;22;20003;-80
2023/01/01 01:12:01;;;;;;;227.50;91.43;;;;;;;2.81;100.00;98983.53;6248090;22;20030;-81
2023/01/01 01:14:26;;;;;;;216.55;90.18;;;;;;;2.88;100.00;99001.97;6272412;22;20003;-80
2023/01/01 01:16:52;;;;;;;228.15;98.03;;;;;;;2.87;100.00;98988.75;6273782;22;19999;-80
2023/01/01 01:19:18;;;;;;;256.02;103.63;;;;;;;2.82;100.00;98986.19;6251158;22;20014;-80
2023/01/01 01:21:45;;;;;;;277.15;114.75;;;;;;;2.80;100.00;98993.22;6278539;22;20011;-80
2023/01/01 01:24:11;;;;;;;239.00;103.80;;;;;;;2.87;100.00;99000.22;6253835;22;20515;-80
2023/01/01 01:26:37;;;;;;;203.10;82.80;;;;;;;2.87;100.00;99000.22;6254227;22;20015;-81
2023/01/01 01:29:03;;;;;;;160.20;61.05;;;;;;;2.81;100.00;98994.97;6252132;22;20098;-80
2023/01/01 01:31:30;;;;;;;163.35;62.63;;;;;;;2.79;100.00;98998.53;6249238;22;20161;-82
2023/01/01 01:33:56;;;;;;;172.63;66.53;;;;;;;2.73;100.00;98987.13;6280192;22;20440;-81
2023/01/01 01:36:23;;;;;;;161.68;63.10;;;;;;;2.80;100.00;98995.84;6256853;22;20420;-80
2023/01/01 01:38:49;;;;;;;149.23;62.85;;;;;;;2.69;100.00;98980.09;6256682;22;20443;-82
2023/01/01 01:41:17;;;;;;;160.38;62.35;;;;;;;2.73;100.00;98978.31;6255741;22;20003;-81
2023/01/01 01:43:42;;;;;;;146.82;60.72;;;;;;;2.71;100.00;98977.44;6279310;22;20443;-82
2023/01/01 01:46:17;;;;;;;165.02;66.60;;;;;;;2.68;100.00;98977.47;6279280;22;20016;-81
2023/01/01 01:48:46;;;;;;;171.57;66.20;;;;;;;2.64;100.00;98971.34;6280253;22;20078;-81
2023/01/01 01:51:15;;;;;;;132.07;52.90;;;;;;;2.45;100.00;98964.44;6255412;22;20023;-81
2023/01/01 01:53:44;;;;;;;124.65;51.80;;;;;;;2.45;100.00;98969.72;6255649;22;20371;-81
2023/01/01 01:56:14;;;;;;;94.13;40.78;;;;;;;2.41;100.00;98969.75;6255958;22;19992;-80
2023/01/01 01:58:40;;;;;;;100.10;39.63;;;;;;;2.45;100.00;98980.28;6256112;22;20458;-80
2023/01/01 02:01:05;;;;;;;100.95;40.00;;;;;;;2.43;100.00;98986.47;6256916;22;20000;-81
2023/01/01 02:03:38;;;;;;;101.00;39.58;;;;;;;2.40;100.00;98987.34;6281912;22;20011;-80
2023/01/01 02:06:04;;;;;;;96.45;39.97;;;;;;;2.35;100.00;98991.78;6255326;22;20006;-81
2023/01/01 02:08:30;;;;;;;99.15;40.28;;;;;;;2.23;100.00;98973.38;6255202;22;20003;-79
2023/01/01 02:10:55;;;;;;;93.30;39.40;;;;;;;2.20;100.00;98981.31;6280904;22;20006;-81
2023/01/01 02:13:21;;;;;;;101.28;43.10;;;;;;;2.23;100.00;98986.59;6255480;22;20061;-81
2023/01/01 02:16:22;;;;;;;128.00;43.80;;;;;;;2.30;100.00;99001.50;6254887;22;20004;-80
2023/01/01 02:19:01;;;;;;;103.93;43.25;;;;;;;2.24;100.00;99004.19;6199994;22;20092;-80
2023/01/01 02:21:31;;;;;;;105.25;41.65;;;;;;;2.23;100.00;99004.19;6257481;22;20459;-81
2023/01/01 02:24:09;;;;;;;120.47;46.40;;;;;;;2.26;100.00;99006.81;6257983;22;20003;-81
2023/01/01 02:26:43;;;;;;;117.63;45.63;;;;;;;2.32;100.00;99012.94;6284876;22;20401;-80
2023/01/01 02:29:29;;;;;;;112.18;44.28;;;;;;;2.25;100.00;99008.56;6282010;22;20010;-82
2023/01/01 02:32:00;;;;;;;110.63;43.33;;;;;;;2.27;100.00;99021.75;6281382;22;20000;-79
2023/01/01 02:34:30;;;;;;;113.55;44.88;;;;;;;2.13;100.00;98991.03;6283188;22;20045;-81
2023/01/01 02:36:56;;;;;;;113.65;43.97;;;;;;;2.26;100.00;99012.97;6282165;22;20007;-79
2023/01/01 02:39:25;;;;;;;99.93;40.03;;;;;;;2.29;100.00;99015.59;6283303;22;20027;-81
2023/01/01 02:41:53;;;;;;;107.85;41.40;;;;;;;2.26;100.00;99001.53;6257588;22;19999;-80
2023/01/01 02:44:20;;;;;;;100.63;41.40;;;;;;;2.22;100.00;99000.66;6282374;22;20082;-80
2023/01/01 02:46:46;;;;;;;116.45;44.92;;;;;;;2.30;100.00;99012.06;6281967;22;20022;-80
2023/01/01 02:49:11;;;;;;;96.60;39.10;;;;;;;2.26;100.00;99010.31;6282286;22;20455;-80
2023/01/01 02:51:56;;;;;;;106.30;41.22;;;;;;;2.28;100.00;99003.25;6279582;22;20094;-80
2023/01/01 02:54:31;;;;;;;108.57;44.55;;;;;;;2.25;100.00;99008.56;6280236;22;20010;-80
2023/01/01 02:57:19;;;;;;;109.20;43.08;;;;;;;2.31;100.00;99011.16;6278807;22;20046;-80
2023/01/01 03:02:44;;;;;;;121.22;45.35;;;;;;;2.26;100.00;99017.34;6280198;22;20482;-79
2023/01/01 03:05:13;;;;;;;121.65;49.08;;;;;;;2.29;100.00;99015.59;6278478;22;20003;-81
2023/01/01 03:08:09;;;;;;;117.22;46.38;;;;;;;2.21;100.00;99011.25;6278936;22;20348;-80
2023/01/01 03:10:45;;;;;;;113.18;46.70;;;;;;;2.06;100.00;98993.72;6253281;22;20029;-81
2023/01/01 03:13:19;;;;;;;105.10;40.97;;;;;;;2.17;100.00;99010.38;6252403;22;20006;-80
2023/01/01 03:15:54;;;;;;;97.90;38.05;;;;;;;2.18;100.00;99018.28;6253120;22;20329;-79
2023/01/01 03:18:31;;;;;;;96.75;38.60;;;;;;;2.11;100.00;99005.13;6277773;22;20031;-80
2023/01/01 03:20:57;;;;;;;78.65;33.17;;;;;;;2.07;100.00;98993.72;6251691;22;20003;-80
2023/01/01 03:23:30;;;;;;;78.32;33.10;;;;;;;2.09;100.00;99005.13;6252954;22;20014;-80
2023/01/01 03:25:59;;;;;;;89.10;36.22;;;;;;;2.07;100.00;99000.75;6278322;22;20004;-80
2023/01/01 03:28:28;;;;;;;94.88;37.92;;;;;;;2.07;100.00;99014.81;6278253;22;20003;-82
2023/01/01 03:30:54;;;;;;;101.88;40.90;;;;;;;2.02;100.00;98997.25;6250577;22;20007;-80
2023/01/01 03:33:37;;;;;;;94.85;37.53;;;;;;;1.98;100.00;98993.75;6251508;22;20284;-81
2023/01/01 03:36:08;;;;;;;104.07;43.45;;;;;;;2.06;100.00;99009.56;6252204;22;20004;-80
2023/01/01 03:38:41;;;;;;;107.90;43.17;;;;;;;2.05;100.00;99010.44;6251926;22;20026;-81
2023/01/01 03:41:14;;;;;;;104.72;42.97;;;;;;;1.96;100.00;98987.63;6251215;22;20440;-80
2023/01/01 03:43:55;;;;;;;111.88;45.53;;;;;;;2.02;100.00;99008.69;6251643;22;20019;-81
2023/01/01 03:46:28;;;;;;;120.25;46.95;;;;;;;1.93;100.00;99003.47;6276177;22;20019;-81
2023/01/01 03:48:56;;;;;;;109.43;44.15;;;;;;;1.93;100.00;99003.47;6253457;22;20007;-79
2023/01/01 03:51:50;;;;;;;97.68;41.00;;;;;;;1.94;100.00;99022.81;6255791;22;20037;-80
2023/01/01 03:54:18;;;;;;;101.57;36.42;;;;;;;2.01;100.00;99019.25;6277887;22;20007;-80
2023/01/01 03:56:47;;;;;;;87.90;36.10;;;;;;;1.92;100.00;99020.16;6277801;22;20046;-80
2023/01/01 03:59:23;;;;;;;75.47;30.25;;;;;;;1.90;100.00;99008.75;6277722;22;20003;-81
2023/01/01 04:01:56;;;;;;;69.07;29.38;;;;;;;1.89;100.00;99017.53;6251813;22;19996;-81
2023/01/01 04:04:23;;;;;;;72.10;29.05;;;;;;;1.92;100.00;99016.66;6250905;22;20004;-81
2023/01/01 04:06:49;;;;;;;65.97;26.42;;;;;;;1.92;100.00;99003.44;6252509;22;19999;-81
2023/01/01 04:09:17;;;;;;;66.00;25.95;;;;;;;1.92;100.00;99000.81;6253105;22;20414;-81
2023/01/01 04:12:00;;;;;;;66.32;28.13;;;;;;;1.88;100.00;98996.44;6279689;22;19999;-80
2023/01/01 04:14:35;;;;;;;;;;;;;;;1.94;100.00;99017.53;6257353;22;20423;-79
2023/01/01 04:17:03;;;;;;;72.75;26.65;;;;;;;1.87;100.00;99002.59;6280295;22;19910;-79
2023/01/01 04:19:29;;;;;;;87.55;33.75;;;;;;;1.78;100.00;99007.91;6278453;22;20027;-81
2023/01/01 04:21:55;;;;;;;93.07;38.15;;;;;;;1.78;100.00;99007.91;6275527;22;20003;-80
2023/01/01 04:24:22;;;;;;;122.05;45.80;;;;;;;1.81;100.00;99016.72;6251961;22;20328;-81
2023/01/01 04:26:48;;;;;;;105.72;42.40;;;;;;;1.79;100.00;99018.44;6276656;22;20003;-80
2023/01/01 04:29:14;;;;;;;92.38;37.42;;;;;;;1.72;100.00;99015.84;6251406;22;20505;-81
2023/01/01 04:31:40;;;;;;;95.68;36.22;;;;;;;1.67;100.00;99017.59;6250260;22;20055;-81
2023/01/01 04:34:05;;;;;;;117.47;46.97;;;;;;;1.59;100.00;99007.97;6248952;22;20008;-80
2023/01/01 04:36:31;;;;;;;104.80;44.33;;;;;;;1.66;100.00;99023.78;6250074;22;20022;-80
2023/01/01 04:38:56;;;;;;;99.00;37.38;;;;;;;1.64;100.00;99024.66;6250512;22;20007;-80
2023/01/01 04:41:22;;;;;;;83.93;33.03;;;;;;;1.57;100.00;99025.53;6277412;22;20010;-80
2023/01/01 04:43:49;;;;;;;69.95;29.75;;;;;;;1.54;100.00;99038.75;6277904;22;20041;-80
2023/01/01 04:46:15;;;;;;;85.28;35.33;;;;;;;1.51;100.00;99035.22;6278298;22;20012;-79
2023/01/01 04:48:41;;;;;;;93.00;41.30;;;;;;;1.46;100.00;99024.72;6253184;22;20058;-81
2023/01/01 04:51:06;;;;;;;91.82;35.42;;;;;;;1.54;100.00;99037.84;6280335;22;20075;-78
2023/01/01 04:53:33;;;;;;;77.65;32.70;;;;;;;1.45;100.00;99033.50;6278919;22;20032;-79
2023/01/01 04:56:05;;;;;;;80.60;33.88;;;;;;;1.47;100.00;99037.03;6249473;22;20000;-80
2023/01/01 04:58:34;;;;;;;;;;;;;;;1.51;100.00;99033.47;6252947;22;20012;-81
2023/01/01 05:01:00;;;;;;;76.43;29.90;;;;;;;1.38;100.00;99015.94;6281659;22;19940;-81
2023/01/01 05:03:26;;;;;;;82.45;31.65;;;;;;;1.37;100.00;99024.72;6281150;22;19999;-80
2023/01/01 05:05:59;;;;;;;68.20;28.90;;;;;;;1.32;100.00;99020.34;6256631;22;20341;-79
2023/01/01 05:08:25;;;;;;;79.30;32.03;;;;;;;1.34;100.00;99029.13;6255746;22;20347;-80
2023/01/01 05:10:50;;;;;;;80.53;32.83;;;;;;;1.38;100.00;99042.31;6257319;22;20007;-80
2023/01/01 05:13:16;;;;;;;99.38;33.22;;;;;;;1.40;100.00;99047.56;6282013;22;20003;-80
2023/01/01 05:15:42;;;;;;;87.22;32.63;;;;;;;1.41;100.00;99050.22;6255700;22;20351;-80
2023/01/01 05:18:07;;;;;;;79.43;32.42;;;;;;;1.39;100.00;99048.44;6255142;22;20004;-81
2023/01/01 05:20:33;;;;;;;86.85;36.22;;;;;;;1.40;100.00;99051.09;6250825;22;20000;-81
2023/01/01 05:22:58;;;;;;;84.68;33.63;;;;;;;1.40;100.00;99047.56;6254168;22;20003;-81
2023/01/01 05:25:24;;;;;;;111.45;45.38;;;;;;;1.49;100.00;99060.72;6252876;22;20004;-81
2023/01/01 05:27:50;;;;;;;99.35;41.15;;;;;;;1.42;100.00;99044.03;6253147;22;20030;-81
2023/01/01 05:30:15;;;;;;;94.47;38.10;;;;;;;1.40;100.00;99047.56;6253265;22;20351;-78
2023/01/01 05:32:41;;;;;;;79.85;32.90;;;;;;;1.36;100.00;99056.34;6254522;22;20007;-81
2023/01/01 05:35:07;;;;;;;86.15;35.67;;;;;;;1.35;100.00;99054.63;6279746;22;19999;-81
2023/01/01 05:37:32;;;;;;;98.72;35.85;;;;;;;1.47;100.00;99066.03;6280210;22;20011;-81
2023/01/01 05:39:58;;;;;;;138.38;51.97;;;;;;;1.50;100.00;99059.84;6280233;22;20466;-81
2023/01/01 05:42:23;;;;;;;131.80;48.65;;;;;;;1.50;100.00;99063.38;6253740;22;20004;-80
2023/01/01 05:44:49;;;;;;;81.57;33.25;;;;;;;1.45;100.00;99059.84;6254624;22;20007;-81
2023/01/01 05:47:17;;;;;;;75.47;30.63;;;;;;;1.41;100.00;99047.56;6282128;22;20042;-80
2023/01/01 05:49:43;;;;;;;76.53;32.03;;;;;;;1.51;100.00;99059.84;6281936;22;20007;-79
2023/01/01 05:52:08;;;;;;;77.50;31.50;;;;;;;1.50;100.00;99055.47;6281180;22;20142;-79
2023/01/01 05:54:34;;;;;;;74.05;28.23;;;;;;;1.41;100.00;99042.31;6281892;22;20051;-80
2023/01/01 05:56:59;;;;;;;73.10;28.90;;;;;;;1.39;100.00;99043.16;6253715;22;20090;-80
2023/01/01 05:59:25;;;;;;;70.43;28.73;;;;;;;1.51;100.00;99054.56;6280557;22;20032;-81
2023/01/01 06:01:53;;;;;;;63.10;27.00;;;;;;;1.48;100.00;99043.16;6253923;22;20034;-80
2023/01/01 06:04:21;;;;;;;78.05;32.70;;;;;;;1.53;100.00;99051.94;6251724;22;20004;-82
2023/01/01 06:06:50;;;;;;;89.60;34.40;;;;;;;1.55;100.00;99058.97;6252445;22;20011;-80
2023/01/01 06:09:15;;;;;;;80.68;31.83;;;;;;;1.52;100.00;99051.06;6253800;22;20451;-81
2023/01/01 06:11:41;;;;;;;91.22;35.70;;;;;;;1.56;100.00;99062.47;6251333;22;20007;-80
2023/01/01 06:14:06;;;;;;;109.32;40.05;;;;;;;1.55;100.00;99069.50;6251619;22;20086;-80
2023/01/01 06:16:32;;;;;;;117.57;45.60;;;;;;;1.58;100.00;99066.88;6250810;22;20004;-81
2023/01/01 06:18:58;;;;;;;126.57;48.42;;;;;;;1.58;100.00;99064.22;6252206;22;20037;-79
2023/01/01 06:21:25;;;;;;;102.60;42.78;;;;;;;1.64;100.00;99076.50;6278394;22;20082;-80
2023/01/01 06:23:51;;;;;;;112.45;43.78;;;;;;;1.64;100.00;99087.94;6253946;22;20007;-81
2023/01/01 06:26:22;;;;;;;135.60;49.92;;;;;;;1.68;100.00;99077.38;6279674;22;20073;-80
2023/01/01 06:28:48;;;;;;;134.57;50.37;;;;;;;1.73;100.00;99076.50;6255295;22;20011;-80
2023/01/01 06:31:16;;;;;;;140.70;55.33;;;;;;;1.81;100.00;99076.50;6281901;22;20265;-81
2023/01/01 06:33:42;;;;;;;120.55;49.65;;;;;;;1.81;100.00;99065.94;6281333;22;20000;-80
2023/01/01 06:36:10;;;;;;;128.77;50.40;;;;;;;1.73;100.00;99062.41;6253164;22;20006;-81
2023/01/01 06:38:38;;;;;;;110.20;43.08;;;;;;;1.83;100.00;99069.44;6278916;22;20359;-80
2023/01/01 06:41:06;;;;;;;93.07;37.90;;;;;;;1.81;100.00;99074.72;6278867;22;20000;-79
2023/01/01 06:43:33;;;;;;;89.13;34.80;;;;;;;1.85;100.00;99065.03;6281206;22;19999;-79
2023/01/01 06:46:08;;;;;;;101.90;39.45;;;;;;;1.98;100.00;99065.00;6280097;22;19999;-80
2023/01/01 06:48:35;;;;;;;122.93;46.45;;;;;;;1.98;100.00;99056.19;6256008;22;20014;-78
2023/01/01 06:51:12;;;;;;;82.30;34.83;;;;;;;2.13;100.00;99062.28;6255853;22;20005;-79
2023/01/01 06:53:43;;;;;;;149.38;60.80;;;;;;;2.81;100.00;99098.03;6249403;22;20014;-81
2023/01/01 06:56:09;;;;;;;113.03;45.55;;;;;;;3.70;100.00;99091.13;6251952;22;19999;-81
2023/01/01 06:58:34;;;;;;;71.93;30.27;;;;;;;4.65;100.00;99062.59;6253763;22;20011;-80
2023/01/01 07:01:17;;;;;;;76.57;32.40;;;;;;;5.44;100.00;99023.31;6278320;22;20477;-81
2023/01/01 07:03:44;;;;;;;76.28;33.78;;;;;;;6.23;100.00;98999.66;6255553;22;20007;-80
2023/01/01 07:06:10;;;;;;;86.10;33.33;;;;;;;6.93;100.00;98975.88;6253713;22;20015;-80
2023/01/01 07:08:36;;;;;;;65.70;27.10;;;;;;;7.29;100.00;98955.44;6279054;22;20141;-80
2023/01/01 07:11:01;;;;;;;62.97;26.38;;;;;;;7.96;97.75;98942.94;6253585;22;20431;-81
2023/01/01 07:13:29;;;;;;;70.10;29.52;;;;;;;8.70;91.10;98938.00;6279874;22;20059;-81
2023/01/01 07:15:54;;;;;;;62.67;28.25;;;;;;;9.33;83.82;98902.06;6252009;22;20007;-81
2023/01/01 07:18:21;;;;;;;63.88;27.95;;;;;;;9.62;79.53;98893.88;6277332;22;20355;-81
2023/01/01 07:20:58;;;;;;;76.57;31.52;;;;;;;9.85;77.74;98877.84;6276956;22;20440;-81
2023/01/01 07:23:25;;;;;;;65.07;30.90;;;;;;;10.06;75.57;98854.81;6252998;22;20011;-82
2023/01/01 07:25:51;;;;;;;67.82;32.78;;;;;;;9.84;77.71;98856.56;6279070;22;19995;-82
2023/01/01 07:28:17;;;;;;;70.72;33.45;;;;;;;10.12;75.62;98868.78;6274642;22;20402;-81
2023/01/01 07:30:43;;;;;;;72.07;35.58;;;;;;;10.59;73.21;98858.91;6248495;22;20003;-80
2023/01/01 07:33:13;;;;;;;83.32;37.95;;;;;;;11.35;70.29;98855.66;6274198;22;20011;-81
2023/01/01 07:35:39;;;;;;;75.00;36.90;;;;;;;11.49;68.48;98841.63;6248845;22;20067;-81
2023/01/01 07:38:05;;;;;;;79.68;39.95;;;;;;;11.29;69.44;98829.97;6248539;22;20056;-82
2023/01/01 07:40:31;;;;;;;166.90;76.40;;;;;;;11.64;68.69;98836.44;6245403;22;20347;-77
2023/01/01 07:42:57;;;;;;;143.75;67.18;;;;;;;12.29;65.88;98833.41;6271263;22;20000;-74
2023/01/01 07:45:23;;;;;;;109.38;49.65;;;;;;;12.44;64.30;98819.22;6271276;22;20161;-75
2023/01/01 07:47:56;;;;;;;100.60;47.38;;;;;;;12.26;64.96;98803.16;6271042;22;20019;-75
2023/01/01 07:50:23;;;;;;;97.07;45.75;;;;;;;12.02;67.75;98804.34;6245702;22;20008;-75
2023/01/01 07:52:49;;;;;;;101.43;49.65;;;;;;;12.12;68.63;98798.44;6269434;22;20173;-76
2023/01/01 07:55:16;;;;;;;108.60;55.40;;;;;;;12.15;69.26;98794.78;6244442;22;20083;-83
2023/01/01 07:57:42;;;;;;;115.25;55.47;;;;;;;12.36;69.59;98799.97;6246276;22;20031;-82
2023/01/01 08:00:10;;;;;;;111.10;52.65;;;;;;;12.69;68.91;98801.91;6245978;22;20355;-84
2023/01/01 08:02:36;;;;;;;97.13;50.88;;;;;;;13.12;68.16;98809.53;6247306;22;20439;-83
2023/01/01 08:05:04;;;;;;;106.95;52.85;;;;;;;13.25;67.23;98790.97;6248387;22;20004;-85
2023/01/01 08:07:30;;;;;;;99.60;50.85;;;;;;;13.20;67.57;98801.06;6244186;22;20498;-83
2023/01/01 08:09:56;;;;;;;92.50;45.55;;;;;;;13.51;66.18;98795.81;6248284;22;20042;-84
2023/01/01 08:12:21;;;;;;;96.70;44.92;;;;;;;13.57;65.08;98790.09;6273937;22;20004;-82
2023/01/01 08:14:47;;;;;;;89.43;44.33;;;;;;;13.18;66.36;98779.66;6272794;22;20000;-82
2023/01/01 08:17:13;;;;;;;91.95;45.60;;;;;;;13.25;67.19;98801.72;6246189;22;20039;-81
2023/01/01 08:19:38;;;;;;;101.43;50.10;;;;;;;13.39;65.86;98778.53;6245851;22;20073;-82
2023/01/01 08:22:04;;;;;;;125.07;56.97;;;;;;;13.88;63.81;98797.34;6244660;22;20004;-82
2023/01/01 08:24:40;;;;;;;121.53;58.30;;;;;;;14.17;62.39;98783.16;6273150;22;20000;-83
2023/01/01 08:27:11;;;;;;;132.55;63.08;;;;;;;14.26;61.84;98788.03;6248750;22;20075;-83
2023/01/01 08:29:45;;;;;;;174.48;82.80;;;;;;;13.37;64.37;98769.69;6248385;22;20008;-84
2023/01/01 08:32:16;;;;;;;140.25;68.47;;;;;;;13.01;65.22;98779.66;6248866;22;20011;-82
2023/01/01 08:34:42;;;;;;;136.68;66.22;;;;;;;12.31;67.52;98763.53;6247863;22;20006;-82
2023/01/01 08:37:15;;;;;;;137.73;68.65;;;;;;;12.11;68.63;98755.63;6273173;22;20091;-82
2023/01/01 08:39:41;;;;;;;138.57;65.95;;;;;;;13.00;65.67;98780.59;6247032;22;20003;-82
2023/01/01 08:42:06;;;;;;;123.45;61.47;;;;;;;13.73;62.58;98790.13;6246609;22;20034;-87
2023/01/01 08:44:32;;;;;;;142.73;70.43;;;;;;;14.06;61.32;98783.75;6247054;22;20069;-84
2023/01/01 08:46:58;;;;;;;137.95;66.13;;;;;;;14.59;58.43;98774.47;6249420;22;20024;-82
2023/01/01 08:49:23;;;;;;;119.25;62.00;;;;;;;14.88;57.01;98775.44;6247568;22;20014;-81
2023/01/01 08:51:50;;;;;;;144.40;72.78;;;;;;;14.22;59.79;98770.31;6247856;22;20020;-74
2023/01/01 08:54:16;;;;;;;132.48;68.28;;;;;;;13.54;61.21;98756.19;6272991;22;20482;-79
2023/01/01 08:56:43;;;;;;;150.73;77.38;;;;;;;12.49;66.05;98763.50;6247247;22;20061;-80
2023/01/01 08:59:09;;;;;;;149.48;78.45;;;;;;;13.28;65.04;98791.69;6272572;22;20435;-81
2023/01/01 09:01:34;;;;;;;151.57;77.13;;;;;;;13.72;61.49;98758.84;6247660;22;20068;-80
2023/01/01 09:04:00;;;;;;;138.80;68.22;;;;;;;14.26;59.87;98771.88;6275367;22;20008;-81
2023/01/01 09:06:29;;;;;;;142.43;67.57;;;;;;;14.91;58.13;98775.28;6281829;22;20004;-84
2023/01/01 09:09:00;;;;;;;138.50;68.00;;;;;;;16.09;54.63;98775.94;6247767;22;20003;-82
2023/01/01 09:11:27;;;;;;;142.13;70.23;;;;;;;16.32;53.46;98775.34;6248101;22;20018;-83
2023/01/01 09:13:53;;;;;;;137.23;69.55;;;;;;;16.91;51.70;98762.41;6250931;22;20308;-84
2023/01/01 09:16:19;;;;;;;130.50;70.10;;;;;;;17.17;50.79;98761.47;6252596;22;20004;-84
2023/01/01 09:18:45;;;;;;;132.32;69.38;;;;;;;17.16;50.90;98751.66;6250888;22;20007;-82
2023/01/01 09:21:13;;;;;;;126.88;69.03;;;;;;;17.40;50.14;98746.34;6273943;22;20004;-83
2023/01/01 09:23:39;;;;;;;135.60;69.97;;;;;;;17.57;49.69;98736.09;6249375;22;20094;-82
2023/01/01 09:26:07;;;;;;;127.90;67.85;;;;;;;17.60;49.62;98741.28;6247754;22;20016;-83
2023/01/01 09:28:33;;;;;;;129.38;68.07;;;;;;;18.24;48.65;98742.06;6273774;22;20027;-83
2023/01/01 09:31:00;;;;;;;138.93;68.97;;;;;;;18.61;47.44;98729.34;6275679;22;20351;-84
2023/01/01 09:33:26;;;;;;;131.15;68.20;;;;;;;19.57;46.19;98744.47;6275139;22;20010;-83
2023/01/01 09:35:52;;;;;;;117.03;64.25;;;;;;;20.39;44.29;98746.81;6280165;22;20003;-84
2023/01/01 09:38:18;;;;;;;125.25;69.68;;;;;;;21.48;42.36;98743.78;6274800;22;20170;-84
2023/01/01 09:41:07;;;;;;;124.10;70.85;;;;;;;22.03;40.82;98731.63;6249074;22;20038;-82
2023/01/01 09:43:49;;;;;;;113.85;63.58;;;;;;;22.24;40.57;98720.63;6248902;22;20397;-83
2023/01/01 09:46:15;;;;;;;;;;;;;;;22.34;39.84;98710.63;6249704;22;20012;-83
2023/01/01 09:49:02;;;;;;;93.97;52.05;;;;;;;22.83;39.35;98717.91;6275356;22;19907;-84
2023/01/01 09:51:33;;;;;;;72.18;41.50;;;;;;;22.08;40.01;98698.50;6251880;22;20008;-84
2023/01/01 09:54:04;;;;;;;70.78;41.05;;;;;;;21.55;41.21;98695.09;6246687;23;20004;-84
2023/01/01 09:56:30;;;;;;;80.05;47.63;;;;;;;22.54;39.98;98717.84;6251845;22;20024;-83
2023/01/01 09:59:00;;;;;;;92.15;52.35;;;;;;;23.41;38.56;98707.00;6218277;23;20079;-83
2023/01/01 10:01:42;;;;;;;109.20;63.63;;;;;;;23.38;38.21;98694.44;6219216;23;20028;-83
2023/01/01 10:04:26;;;;;;;;;;;;;;;23.51;38.00;98702.34;6245546;23;20003;-83
2023/01/01 10:07:18;;;;;;;91.88;54.20;;;;;;;23.40;38.20;98694.31;6218528;23;20001;-82
2023/01/01 10:10:05;;;;;;;99.20;55.65;;;;;;;22.81;38.80;98686.31;6214667;23;20008;-74
2023/01/01 10:13:07;;;;;;;94.55;56.10;;;;;;;23.48;38.13;98695.31;6240533;23;20012;-75
2023/01/01 10:15:38;;;;;;;88.88;50.70;;;;;;;22.78;38.98;98676.53;6240642;23;20015;-76
2023/01/01 10:18:08;;;;;;;71.50;40.75;;;;;;;22.93;38.07;98676.97;6239759;23;20465;-74
2023/01/01 10:21:11;;;;;;;51.67;32.05;;;;;;;22.71;38.80;98672.66;6239635;23;20111;-73
2023/01/01 10:24:01;;;;;;;46.55;27.45;;;;;;;23.05;38.24;98668.47;6220807;23;20098;-73
2023/01/01 10:26:31;;;;;;;52.03;31.65;;;;;;;23.06;37.89;98664.75;6239697;23;20010;-72
2023/01/01 10:29:13;;;;;;;59.50;34.03;;;;;;;23.96;37.16;98670.56;6240172;23;20343;-74
2023/01/01 10:31:41;;;;;;;48.05;28.92;;;;;;;24.86;36.08;98673.31;6239652;23;20042;-74
2023/01/01 10:34:18;;;;;;;44.17;27.48;;;;;;;25.09;35.36;98670.94;6239679;23;20403;-79
2023/01/01 10:36:44;;;;;;;49.60;27.77;;;;;;;25.01;35.21;98659.94;6214788;23;20010;-75
2023/01/01 10:39:16;;;;;;;33.90;21.42;;;;;;;25.06;34.64;98636.53;6239677;23;20482;-76
2023/01/01 10:41:45;;;;;;;39.38;23.15;;;;;;;24.34;35.92;98644.00;6239625;23;20011;-78
2023/01/01 10:44:12;;;;;;;34.05;20.67;;;;;;;24.22;36.07;98629.69;6213968;23;20035;-76
2023/01/01 10:46:42;;;;;;;36.35;23.15;;;;;;;23.88;36.25;98623.97;6239424;23;20020;-76
2023/01/01 10:49:10;;;;;;;34.33;20.80;;;;;;;24.72;35.20;98624.56;6239465;23;20004;-76
2023/01/01 10:51:45;;;;;;;40.95;23.30;;;;;;;25.68;33.68;98619.00;6239350;23;20008;-75
2023/01/01 10:54:36;;;;;;;54.15;31.35;;;;;;;26.71;33.12;98634.25;6213286;23;20008;-76
2023/01/01 10:57:39;;;;;;;53.75;32.08;;;;;;;26.66;33.02;98626.53;6239554;23;20093;-76
2023/01/01 11:00:24;;;;;;;41.08;26.55;;;;;;;26.44;32.80;98612.59;6232686;23;20418;-75
2023/01/01 11:03:17;;;;;;;45.10;28.63;;;;;;;26.28;33.12;98605.16;6239668;23;20085;-76
2023/01/01 11:06:06;;;;;;;40.00;25.15;;;;;;;26.69;32.43;98600.63;6241020;22;20494;-76
2023/01/01 11:08:33;;;;;;;35.58;21.20;;;;;;;25.86;33.19;98586.00;6239096;23;20008;-75
2023/01/01 11:11:00;;;;;;;44.60;24.65;;;;;;;26.24;33.20;98593.66;6239540;23;20398;-75
2023/01/01 11:13:27;;;;;;;37.35;22.95;;;;;;;25.90;32.95;98573.66;6240975;22;20011;-76
2023/01/01 11:15:52;;;;;;;35.90;22.88;;;;;;;25.95;32.89;98581.38;6239477;23;20026;-76
2023/01/01 11:18:34;;;;;;;40.25;22.95;;;;;;;26.35;32.81;98585.13;6214040;23;20094;-76
2023/01/01 11:21:01;;;;;;;47.85;29.17;;;;;;;26.25;32.62;98573.44;6239147;23;20035;-76
2023/01/01 11:23:35;;;;;;;39.75;25.42;;;;;;;26.04;32.94;98569.41;6213793;23;20016;-75
2023/01/01 11:26:11;;;;;;;41.92;26.58;;;;;;;26.70;32.34;98580.38;6239545;23;20039;-74
2023/01/01 11:28:37;;;;;;;38.95;24.70;;;;;;;26.69;31.90;98574.03;6241220;22;20000;-75